sensor_id;sensor_type;location;lat;lon;timestamp;P1;durP1;ratioP1;P2;durP2;ratioP2
41923;SDS011;27613;48.116;11.656;2023-03-20T00:00:43;5.75;;;3.97;;
41923;SDS011;27613;48.116;11.656;2023-03-20T00:03:12;5.47;;;3.83;;
41923;SDS011;27613;48.116;11.656;2023-03-20T00:05:38;4.95;;;3.60;;
41923;SDS011;27613;48.116;11.656;2023-03-20T00:08:04;5.15;;;3.60;;
41923;SDS011;27613;48.116;11.656;2023-03-20T00:10:35;5.55;;;3.67;;
41923;SDS011;27613;48.116;11.656;2023-03-20T00:13:11;4.38;;;3.50;;
41923;SDS011;27613;48.116;11.656;2023-03-20T00:15:41;10.80;;;3.83;;
41923;SDS011;27613;48.116;11.656;2023-03-20T00:18:18;5.55;;;3.83;;
41923;SDS011;27613;48.116;11.656;2023-03-20T00:20:47;4.82;;;3.45;;
41923;SDS011;27613;48.116;11.656;2023-03-20T00:23:14;4.50;;;3.53;;
41923;SDS011;27613;48.116;11.656;2023-03-20T00:25:42;3.40;;;2.92;;
41923;SDS011;27613;48.116;11.656;2023-03-20T00:30:53;4.07;;;2.88;;
41923;SDS011;27613;48.116;11.656;2023-03-20T00:33:19;4.05;;;3.35;;
41923;SDS011;27613;48.116;11.656;2023-03-20T00:35:44;4.25;;;3.08;;
41923;SDS011;27613;48.116;11.656;2023-03-20T00:38:10;4.88;;;3.30;;
41923;SDS011;27613;48.116;11.656;2023-03-20T00:40:35;5.60;;;3.28;;
41923;SDS011;27613;48.116;11.656;2023-03-20T00:43:01;4.15;;;2.92;;
41923;SDS011;27613;48.116;11.656;2023-03-20T00:45:29;5.50;;;3.38;;
41923;SDS011;27613;48.116;11.656;2023-03-20T00:47:58;5.13;;;3.17;;
41923;SDS011;27613;48.116;11.656;2023-03-20T00:50:25;4.80;;;3.25;;
41923;SDS011;27613;48.116;11.656;2023-03-20T00:52:54;3.95;;;3.00;;
41923;SDS011;27613;48.116;11.656;2023-03-20T00:55:21;6.15;;;3.17;;
41923;SDS011;27613;48.116;11.656;2023-03-20T00:57:52;4.72;;;3.28;;
41923;SDS011;27613;48.116;11.656;2023-03-20T01:02:48;4.30;;;3.00;;
41923;SDS011;27613;48.116;11.656;2023-03-20T01:05:19;3.05;;;2.42;;
41923;SDS011;27613;48.116;11.656;2023-03-20T01:07:45;4.60;;;2.90;;
41923;SDS011;27613;48.116;11.656;2023-03-20T01:10:11;3.83;;;2.97;;
41923;SDS011;27613;48.116;11.656;2023-03-20T01:12:38;4.30;;;2.60;;
41923;SDS011;27613;48.116;11.656;2023-03-20T01:15:11;3.08;;;2.30;;
41923;SDS011;27613;48.116;11.656;2023-03-20T01:17:41;3.50;;;2.65;;
41923;SDS011;27613;48.116;11.656;2023-03-20T01:20:14;3.15;;;2.53;;
41923;SDS011;27613;48.116;11.656;2023-03-20T01:22:45;2.92;;;2.30;;
41923;SDS011;27613;48.116;11.656;2023-03-20T01:25:11;4.07;;;2.45;;
41923;SDS011;27613;48.116;11.656;2023-03-20T01:27:37;2.85;;;2.30;;
41923;SDS011;27613;48.116;11.656;2023-03-20T01:30:05;3.28;;;2.30;;
41923;SDS011;27613;48.116;11.656;2023-03-20T01:32:51;3.70;;;2.50;;
41923;SDS011;27613;48.116;11.656;2023-03-20T01:35:21;5.75;;;2.80;;
41923;SDS011;27613;48.116;11.656;2023-03-20T01:37:49;3.53;;;2.17;;
41923;SDS011;27613;48.116;11.656;2023-03-20T01:42:55;3.00;;;2.40;;
41923;SDS011;27613;48.116;11.656;2023-03-20T01:45:21;2.83;;;2.30;;
41923;SDS011;27613;48.116;11.656;2023-03-20T01:47:52;2.92;;;2.00;;
41923;SDS011;27613;48.116;11.656;2023-03-20T01:50:21;4.03;;;2.22;;
41923;SDS011;27613;48.116;11.656;2023-03-20T01:52:52;3.45;;;2.40;;
41923;SDS011;27613;48.116;11.656;2023-03-20T01:55:23;3.88;;;2.40;;
41923;SDS011;27613;48.116;11.656;2023-03-20T01:57:50;4.10;;;2.40;;
41923;SDS011;27613;48.116;11.656;2023-03-20T02:00:18;5.35;;;2.30;;
41923;SDS011;27613;48.116;11.656;2023-03-20T02:02:44;3.28;;;2.08;;
41923;SDS011;27613;48.116;11.656;2023-03-20T02:05:11;2.95;;;2.03;;
41923;SDS011;27613;48.116;11.656;2023-03-20T02:07:39;3.30;;;2.25;;
41923;SDS011;27613;48.116;11.656;2023-03-20T02:10:09;2.40;;;1.83;;
41923;SDS011;27613;48.116;11.656;2023-03-20T02:12:37;3.33;;;1.88;;
41923;SDS011;27613;48.116;11.656;2023-03-20T02:15:04;1.92;;;1.60;;
41923;SDS011;27613;48.116;11.656;2023-03-20T02:17:31;3.22;;;2.10;;
41923;SDS011;27613;48.116;11.656;2023-03-20T02:20:01;2.65;;;1.90;;
41923;SDS011;27613;48.116;11.656;2023-03-20T02:26:03;2.85;;;1.90;;
41923;SDS011;27613;48.116;11.656;2023-03-20T02:29:04;3.10;;;2.05;;
41923;SDS011;27613;48.116;11.656;2023-03-20T02:37:45;4.43;;;2.35;;
41923;SDS011;27613;48.116;11.656;2023-03-20T02:46:22;2.67;;;1.70;;
41923;SDS011;27613;48.116;11.656;2023-03-20T02:49:22;3.70;;;2.13;;
41923;SDS011;27613;48.116;11.656;2023-03-20T02:52:04;2.50;;;1.70;;
41923;SDS011;27613;48.116;11.656;2023-03-20T02:54:49;2.78;;;1.92;;
41923;SDS011;27613;48.116;11.656;2023-03-20T02:57:28;3.08;;;1.90;;
41923;SDS011;27613;48.116;11.656;2023-03-20T03:00:51;4.88;;;1.77;;
41923;SDS011;27613;48.116;11.656;2023-03-20T03:03:18;2.75;;;1.80;;
41923;SDS011;27613;48.116;11.656;2023-03-20T03:05:54;2.90;;;1.90;;
41923;SDS011;27613;48.116;11.656;2023-03-20T03:08:24;2.90;;;1.92;;
41923;SDS011;27613;48.116;11.656;2023-03-20T03:10:59;2.30;;;1.65;;
41923;SDS011;27613;48.116;11.656;2023-03-20T03:13:31;2.15;;;1.63;;
41923;SDS011;27613;48.116;11.656;2023-03-20T03:16:01;2.55;;;1.70;;
41923;SDS011;27613;48.116;11.656;2023-03-20T03:18:32;2.38;;;1.50;;
41923;SDS011;27613;48.116;11.656;2023-03-20T03:21:01;3.47;;;1.92;;
41923;SDS011;27613;48.116;11.656;2023-03-20T03:23:31;2.17;;;1.63;;
41923;SDS011;27613;48.116;11.656;2023-03-20T03:26:08;3.47;;;2.05;;
41923;SDS011;27613;48.116;11.656;2023-03-20T03:29:04;2.72;;;1.80;;
41923;SDS011;27613;48.116;11.656;2023-03-20T03:31:36;3.35;;;1.70;;
41923;SDS011;27613;48.116;11.656;2023-03-20T03:34:02;3.67;;;1.88;;
41923;SDS011;27613;48.116;11.656;2023-03-20T03:36:40;2.55;;;1.75;;
41923;SDS011;27613;48.116;11.656;2023-03-20T03:39:40;1.90;;;1.50;;
41923;SDS011;27613;48.116;11.656;2023-03-20T03:42:24;3.42;;;1.70;;
41923;SDS011;27613;48.116;11.656;2023-03-20T03:47:36;3.20;;;1.83;;
41923;SDS011;27613;48.116;11.656;2023-03-20T03:52:39;2.28;;;1.77;;
41923;SDS011;27613;48.116;11.656;2023-03-20T03:55:07;3.17;;;2.13;;
41923;SDS011;27613;48.116;11.656;2023-03-20T03:57:37;2.08;;;1.50;;
41923;SDS011;27613;48.116;11.656;2023-03-20T04:00:09;3.53;;;2.00;;
41923;SDS011;27613;48.116;11.656;2023-03-20T04:02:37;2.05;;;1.75;;
41923;SDS011;27613;48.116;11.656;2023-03-20T04:05:05;3.08;;;1.90;;
41923;SDS011;27613;48.116;11.656;2023-03-20T04:07:33;6.55;;;1.83;;
41923;SDS011;27613;48.116;11.656;2023-03-20T04:09:59;2.83;;;1.83;;
41923;SDS011;27613;48.116;11.656;2023-03-20T04:12:40;4.18;;;1.88;;
41923;SDS011;27613;48.116;11.656;2023-03-20T04:15:07;2.28;;;1.80;;
41923;SDS011;27613;48.116;11.656;2023-03-20T04:17:33;2.47;;;1.85;;
41923;SDS011;27613;48.116;11.656;2023-03-20T04:19:59;2.75;;;1.88;;
41923;SDS011;27613;48.116;11.656;2023-03-20T04:22:25;4.50;;;2.10;;
41923;SDS011;27613;48.116;11.656;2023-03-20T04:24:51;2.58;;;2.03;;
41923;SDS011;27613;48.116;11.656;2023-03-20T04:27:17;3.80;;;2.17;;
41923;SDS011;27613;48.116;11.656;2023-03-20T04:29:42;3.97;;;1.83;;
41923;SDS011;27613;48.116;11.656;2023-03-20T04:32:08;2.38;;;1.90;;
41923;SDS011;27613;48.116;11.656;2023-03-20T04:34:34;2.78;;;2.00;;
41923;SDS011;27613;48.116;11.656;2023-03-20T04:37:00;4.05;;;2.00;;
41923;SDS011;27613;48.116;11.656;2023-03-20T04:39:26;2.75;;;2.20;;
41923;SDS011;27613;48.116;11.656;2023-03-20T04:41:52;2.47;;;1.90;;
41923;SDS011;27613;48.116;11.656;2023-03-20T04:44:18;2.53;;;1.83;;
41923;SDS011;27613;48.116;11.656;2023-03-20T04:46:44;3.53;;;1.85;;
41923;SDS011;27613;48.116;11.656;2023-03-20T04:49:09;2.38;;;1.77;;
41923;SDS011;27613;48.116;11.656;2023-03-20T04:51:35;4.82;;;2.10;;
41923;SDS011;27613;48.116;11.656;2023-03-20T04:54:01;2.63;;;1.90;;
41923;SDS011;27613;48.116;11.656;2023-03-20T04:56:26;3.00;;;1.73;;
41923;SDS011;27613;48.116;11.656;2023-03-20T04:58:52;3.20;;;1.98;;
41923;SDS011;27613;48.116;11.656;2023-03-20T05:01:17;3.47;;;2.10;;
41923;SDS011;27613;48.116;11.656;2023-03-20T05:03:43;3.30;;;2.10;;
41923;SDS011;27613;48.116;11.656;2023-03-20T05:06:08;4.80;;;2.42;;
41923;SDS011;27613;48.116;11.656;2023-03-20T05:08:34;3.78;;;2.25;;
41923;SDS011;27613;48.116;11.656;2023-03-20T05:11:00;3.00;;;2.20;;
41923;SDS011;27613;48.116;11.656;2023-03-20T05:13:26;3.22;;;2.00;;
41923;SDS011;27613;48.116;11.656;2023-03-20T05:15:51;2.92;;;2.08;;
41923;SDS011;27613;48.116;11.656;2023-03-20T05:18:17;3.78;;;2.00;;
41923;SDS011;27613;48.116;11.656;2023-03-20T05:20:42;3.15;;;1.98;;
41923;SDS011;27613;48.116;11.656;2023-03-20T05:23:08;3.33;;;2.05;;
41923;SDS011;27613;48.116;11.656;2023-03-20T05:25:34;3.22;;;2.00;;
41923;SDS011;27613;48.116;11.656;2023-03-20T05:27:59;3.33;;;2.00;;
41923;SDS011;27613;48.116;11.656;2023-03-20T05:30:25;3.25;;;2.10;;
41923;SDS011;27613;48.116;11.656;2023-03-20T05:32:50;3.08;;;1.98;;
41923;SDS011;27613;48.116;11.656;2023-03-20T05:35:16;2.88;;;1.88;;
41923;SDS011;27613;48.116;11.656;2023-03-20T05:37:43;3.63;;;2.08;;
41923;SDS011;27613;48.116;11.656;2023-03-20T05:40:09;10.13;;;2.22;;
41923;SDS011;27613;48.116;11.656;2023-03-20T05:42:37;2.22;;;1.90;;
41923;SDS011;27613;48.116;11.656;2023-03-20T05:45:03;3.55;;;1.80;;
41923;SDS011;27613;48.116;11.656;2023-03-20T05:47:29;2.92;;;2.20;;
41923;SDS011;27613;48.116;11.656;2023-03-20T05:49:55;3.42;;;2.22;;
41923;SDS011;27613;48.116;11.656;2023-03-20T05:52:20;2.97;;;1.90;;
41923;SDS011;27613;48.116;11.656;2023-03-20T05:54:46;4.30;;;2.40;;
41923;SDS011;27613;48.116;11.656;2023-03-20T05:57:12;3.55;;;2.28;;
41923;SDS011;27613;48.116;11.656;2023-03-20T05:59:37;4.28;;;2.70;;
41923;SDS011;27613;48.116;11.656;2023-03-20T06:02:03;3.58;;;2.47;;
41923;SDS011;27613;48.116;11.656;2023-03-20T06:04:29;3.33;;;2.13;;
41923;SDS011;27613;48.116;11.656;2023-03-20T06:06:55;2.70;;;2.15;;
41923;SDS011;27613;48.116;11.656;2023-03-20T06:09:21;4.88;;;2.85;;
41923;SDS011;27613;48.116;11.656;2023-03-20T06:11:46;4.07;;;2.92;;
41923;SDS011;27613;48.116;11.656;2023-03-20T06:14:12;4.28;;;2.92;;
41923;SDS011;27613;48.116;11.656;2023-03-20T06:16:38;5.07;;;3.22;;
41923;SDS011;27613;48.116;11.656;2023-03-20T06:19:04;4.35;;;3.38;;
41923;SDS011;27613;48.116;11.656;2023-03-20T06:21:29;4.47;;;3.60;;
41923;SDS011;27613;48.116;11.656;2023-03-20T06:23:55;4.60;;;3.22;;
41923;SDS011;27613;48.116;11.656;2023-03-20T06:26:22;5.32;;;3.50;;
41923;SDS011;27613;48.116;11.656;2023-03-20T06:28:47;4.85;;;3.63;;
41923;SDS011;27613;48.116;11.656;2023-03-20T06:31:13;4.32;;;3.45;;
41923;SDS011;27613;48.116;11.656;2023-03-20T06:33:38;4.68;;;3.70;;
41923;SDS011;27613;48.116;11.656;2023-03-20T06:36:04;4.70;;;3.70;;
41923;SDS011;27613;48.116;11.656;2023-03-20T06:38:30;4.50;;;3.80;;
41923;SDS011;27613;48.116;11.656;2023-03-20T06:40:56;5.38;;;3.97;;
41923;SDS011;27613;48.116;11.656;2023-03-20T06:43:21;4.90;;;3.67;;
41923;SDS011;27613;48.116;11.656;2023-03-20T06:45:47;5.68;;;4.50;;
41923;SDS011;27613;48.116;11.656;2023-03-20T06:48:13;6.75;;;4.53;;
41923;SDS011;27613;48.116;11.656;2023-03-20T06:50:38;9.75;;;5.25;;
41923;SDS011;27613;48.116;11.656;2023-03-20T06:53:04;5.93;;;4.40;;
41923;SDS011;27613;48.116;11.656;2023-03-20T06:55:29;6.82;;;4.97;;
41923;SDS011;27613;48.116;11.656;2023-03-20T06:57:55;4.68;;;4.18;;
41923;SDS011;27613;48.116;11.656;2023-03-20T07:00:21;6.68;;;5.07;;
41923;SDS011;27613;48.116;11.656;2023-03-20T07:02:46;6.53;;;5.20;;
41923;SDS011;27613;48.116;11.656;2023-03-20T07:05:13;6.28;;;5.10;;
41923;SDS011;27613;48.116;11.656;2023-03-20T07:07:39;7.05;;;5.10;;
41923;SDS011;27613;48.116;11.656;2023-03-20T07:10:04;9.13;;;6.75;;
41923;SDS011;27613;48.116;11.656;2023-03-20T07:12:31;6.18;;;5.13;;
41923;SDS011;27613;48.116;11.656;2023-03-20T07:14:56;8.10;;;5.45;;
41923;SDS011;27613;48.116;11.656;2023-03-20T07:17:22;5.47;;;4.32;;
41923;SDS011;27613;48.116;11.656;2023-03-20T07:19:48;4.82;;;4.07;;
41923;SDS011;27613;48.116;11.656;2023-03-20T07:22:17;9.13;;;7.25;;
41923;SDS011;27613;48.116;11.656;2023-03-20T07:24:51;10.07;;;7.10;;
41923;SDS011;27613;48.116;11.656;2023-03-20T07:27:17;6.50;;;5.05;;
41923;SDS011;27613;48.116;11.656;2023-03-20T07:29:43;11.18;;;6.85;;
41923;SDS011;27613;48.116;11.656;2023-03-20T07:32:09;8.88;;;5.18;;
41923;SDS011;27613;48.116;11.656;2023-03-20T07:34:35;5.35;;;3.85;;
41923;SDS011;27613;48.116;11.656;2023-03-20T07:37:01;4.47;;;3.67;;
41923;SDS011;27613;48.116;11.656;2023-03-20T07:39:27;5.85;;;3.65;;
41923;SDS011;27613;48.116;11.656;2023-03-20T07:41:53;4.43;;;3.53;;
41923;SDS011;27613;48.116;11.656;2023-03-20T07:44:18;5.57;;;4.05;;
41923;SDS011;27613;48.116;11.656;2023-03-20T07:46:44;7.05;;;4.07;;
41923;SDS011;27613;48.116;11.656;2023-03-20T07:49:13;6.40;;;3.80;;
41923;SDS011;27613;48.116;11.656;2023-03-20T07:51:42;4.75;;;3.90;;
41923;SDS011;27613;48.116;11.656;2023-03-20T07:54:08;5.18;;;3.75;;
41923;SDS011;27613;48.116;11.656;2023-03-20T07:56:33;4.93;;;3.63;;
41923;SDS011;27613;48.116;11.656;2023-03-20T07:58:59;5.78;;;3.90;;
41923;SDS011;27613;48.116;11.656;2023-03-20T08:01:24;3.92;;;3.50;;
41923;SDS011;27613;48.116;11.656;2023-03-20T08:03:50;7.50;;;4.30;;
41923;SDS011;27613;48.116;11.656;2023-03-20T08:06:15;5.40;;;3.47;;
41923;SDS011;27613;48.116;11.656;2023-03-20T08:08:41;4.43;;;3.45;;
41923;SDS011;27613;48.116;11.656;2023-03-20T08:11:07;4.10;;;3.20;;
41923;SDS011;27613;48.116;11.656;2023-03-20T08:13:32;4.07;;;2.85;;
41923;SDS011;27613;48.116;11.656;2023-03-20T08:15:58;3.38;;;2.67;;
41923;SDS011;27613;48.116;11.656;2023-03-20T08:18:23;3.75;;;2.83;;
41923;SDS011;27613;48.116;11.656;2023-03-20T08:20:49;4.45;;;2.85;;
41923;SDS011;27613;48.116;11.656;2023-03-20T08:23:15;5.03;;;2.63;;
41923;SDS011;27613;48.116;11.656;2023-03-20T08:25:45;3.28;;;2.35;;
41923;SDS011;27613;48.116;11.656;2023-03-20T08:28:12;4.75;;;3.05;;
41923;SDS011;27613;48.116;11.656;2023-03-20T08:30:37;3.22;;;2.30;;
41923;SDS011;27613;48.116;11.656;2023-03-20T08:33:03;4.95;;;2.20;;
41923;SDS011;27613;48.116;11.656;2023-03-20T08:35:28;3.97;;;2.00;;
41923;SDS011;27613;48.116;11.656;2023-03-20T08:37:54;2.88;;;2.03;;
41923;SDS011;27613;48.116;11.656;2023-03-20T08:40:20;33.33;;;17.08;;
41923;SDS011;27613;48.116;11.656;2023-03-20T08:42:45;6.25;;;3.30;;
41923;SDS011;27613;48.116;11.656;2023-03-20T08:45:11;3.83;;;2.30;;
41923;SDS011;27613;48.116;11.656;2023-03-20T08:47:37;4.00;;;2.30;;
41923;SDS011;27613;48.116;11.656;2023-03-20T08:50:04;2.60;;;2.08;;
41923;SDS011;27613;48.116;11.656;2023-03-20T08:52:31;3.72;;;2.17;;
41923;SDS011;27613;48.116;11.656;2023-03-20T08:54:57;5.07;;;2.10;;
41923;SDS011;27613;48.116;11.656;2023-03-20T08:57:22;3.50;;;2.20;;
41923;SDS011;27613;48.116;11.656;2023-03-20T08:59:48;2.55;;;1.63;;
41923;SDS011;27613;48.116;11.656;2023-03-20T09:02:13;3.65;;;1.90;;
41923;SDS011;27613;48.116;11.656;2023-03-20T09:04:39;2.35;;;1.73;;
41923;SDS011;27613;48.116;11.656;2023-03-20T09:07:05;2.97;;;1.77;;
41923;SDS011;27613;48.116;11.656;2023-03-20T09:09:31;3.78;;;2.40;;
41923;SDS011;27613;48.116;11.656;2023-03-20T09:11:57;3.67;;;2.50;;
41923;SDS011;27613;48.116;11.656;2023-03-20T09:14:24;2.90;;;2.03;;
41923;SDS011;27613;48.116;11.656;2023-03-20T09:16:50;2.90;;;2.10;;
41923;SDS011;27613;48.116;11.656;2023-03-20T09:19:16;3.53;;;2.15;;
41923;SDS011;27613;48.116;11.656;2023-03-20T09:21:42;2.85;;;1.67;;
41923;SDS011;27613;48.116;11.656;2023-03-20T09:24:08;3.30;;;1.92;;
41923;SDS011;27613;48.116;11.656;2023-03-20T09:26:35;1.83;;;1.52;;
41923;SDS011;27613;48.116;11.656;2023-03-20T09:29:00;3.00;;;1.77;;
41923;SDS011;27613;48.116;11.656;2023-03-20T09:31:26;4.15;;;1.58;;
41923;SDS011;27613;48.116;11.656;2023-03-20T09:33:52;3.45;;;1.90;;
41923;SDS011;27613;48.116;11.656;2023-03-20T09:36:17;1.70;;;1.40;;
41923;SDS011;27613;48.116;11.656;2023-03-20T09:38:43;4.05;;;1.63;;
41923;SDS011;27613;48.116;11.656;2023-03-20T09:41:13;2.58;;;1.73;;
41923;SDS011;27613;48.116;11.656;2023-03-20T09:52:03;2.80;;;1.63;;
41923;SDS011;27613;48.116;11.656;2023-03-20T09:54:43;2.58;;;1.38;;
41923;SDS011;27613;48.116;11.656;2023-03-20T09:57:14;2.55;;;1.40;;
41923;SDS011;27613;48.116;11.656;2023-03-20T09:59:44;2.40;;;1.40;;
41923;SDS011;27613;48.116;11.656;2023-03-20T10:02:13;2.05;;;1.50;;
41923;SDS011;27613;48.116;11.656;2023-03-20T10:04:48;1.83;;;1.50;;
41923;SDS011;27613;48.116;11.656;2023-03-20T10:07:17;2.22;;;1.40;;
41923;SDS011;27613;48.116;11.656;2023-03-20T10:09:43;2.25;;;1.50;;
41923;SDS011;27613;48.116;11.656;2023-03-20T10:15:00;22.10;;;1.67;;
41923;SDS011;27613;48.116;11.656;2023-03-20T10:20:38;2.00;;;1.10;;
41923;SDS011;27613;48.116;11.656;2023-03-20T10:25:59;1.80;;;1.17;;
41923;SDS011;27613;48.116;11.656;2023-03-20T10:28:33;2.03;;;1.20;;
41923;SDS011;27613;48.116;11.656;2023-03-20T10:31:13;4.13;;;1.42;;
41923;SDS011;27613;48.116;11.656;2023-03-20T10:33:59;2.53;;;1.42;;
41923;SDS011;27613;48.116;11.656;2023-03-20T10:39:42;1.70;;;1.20;;
41923;SDS011;27613;48.116;11.656;2023-03-20T10:42:42;1.73;;;1.20;;
41923;SDS011;27613;48.116;11.656;2023-03-20T10:47:42;2.13;;;1.45;;
41923;SDS011;27613;48.116;11.656;2023-03-20T10:50:16;1.77;;;1.25;;
41923;SDS011;27613;48.116;11.656;2023-03-20T10:52:43;2.72;;;1.60;;
41923;SDS011;27613;48.116;11.656;2023-03-20T10:55:12;3.40;;;1.52;;
41923;SDS011;27613;48.116;11.656;2023-03-20T10:57:39;2.35;;;1.45;;
41923;SDS011;27613;48.116;11.656;2023-03-20T11:00:18;1.67;;;1.17;;
41923;SDS011;27613;48.116;11.656;2023-03-20T11:02:46;1.75;;;0.95;;
41923;SDS011;27613;48.116;11.656;2023-03-20T11:08:06;1.70;;;1.00;;
41923;SDS011;27613;48.116;11.656;2023-03-20T11:10:38;1.27;;;0.90;;
41923;SDS011;27613;48.116;11.656;2023-03-20T11:13:21;1.50;;;0.98;;
41923;SDS011;27613;48.116;11.656;2023-03-20T11:16:10;1.80;;;0.85;;
41923;SDS011;27613;48.116;11.656;2023-03-20T11:18:43;1.38;;;0.90;;
41923;SDS011;27613;48.116;11.656;2023-03-20T11:21:14;5.25;;;0.80;;
41923;SDS011;27613;48.116;11.656;2023-03-20T11:23:43;0.95;;;0.70;;
41923;SDS011;27613;48.116;11.656;2023-03-20T11:26:13;1.15;;;0.68;;
41923;SDS011;27613;48.116;11.656;2023-03-20T11:31:19;0.75;;;0.60;;
41923;SDS011;27613;48.116;11.656;2023-03-20T11:36:31;1.20;;;0.80;;
41923;SDS011;27613;48.116;11.656;2023-03-20T11:39:15;2.85;;;1.58;;
41923;SDS011;27613;48.116;11.656;2023-03-20T11:41:52;1.25;;;0.55;;
41923;SDS011;27613;48.116;11.656;2023-03-20T11:46:54;4.15;;;0.88;;
41923;SDS011;27613;48.116;11.656;2023-03-20T11:49:21;3.85;;;1.00;;
41923;SDS011;27613;48.116;11.656;2023-03-20T11:52:10;1.13;;;0.63;;
41923;SDS011;27613;48.116;11.656;2023-03-20T11:54:37;2.03;;;0.80;;
41923;SDS011;27613;48.116;11.656;2023-03-20T12:02:31;1.00;;;0.60;;
41923;SDS011;27613;48.116;11.656;2023-03-20T12:04:59;1.20;;;0.65;;
41923;SDS011;27613;48.116;11.656;2023-03-20T12:07:31;0.65;;;0.50;;
41923;SDS011;27613;48.116;11.656;2023-03-20T12:10:05;2.90;;;0.52;;
41923;SDS011;27613;48.116;11.656;2023-03-20T12:15:09;1.23;;;0.60;;
41923;SDS011;27613;48.116;11.656;2023-03-20T12:25:24;0.60;;;0.57;;
41923;SDS011;27613;48.116;11.656;2023-03-20T12:28:02;1.65;;;0.60;;
41923;SDS011;27613;48.116;11.656;2023-03-20T12:30:39;1.45;;;0.80;;
41923;SDS011;27613;48.116;11.656;2023-03-20T12:33:17;1.35;;;0.80;;
41923;SDS011;27613;48.116;11.656;2023-03-20T12:38:27;1.65;;;0.95;;
41923;SDS011;27613;48.116;11.656;2023-03-20T12:41:15;2.90;;;1.05;;
41923;SDS011;27613;48.116;11.656;2023-03-20T12:46:46;1.50;;;0.80;;
41923;SDS011;27613;48.116;11.656;2023-03-20T12:49:22;0.75;;;0.60;;
41923;SDS011;27613;48.116;11.656;2023-03-20T12:52:25;1.92;;;1.05;;
41923;SDS011;27613;48.116;11.656;2023-03-20T12:57:50;2.47;;;1.27;;
41923;SDS011;27613;48.116;11.656;2023-03-20T13:00:42;1.42;;;0.88;;
41923;SDS011;27613;48.116;11.656;2023-03-20T13:11:21;1.73;;;0.90;;
41923;SDS011;27613;48.116;11.656;2023-03-20T13:14:09;1.55;;;1.00;;
41923;SDS011;27613;48.116;11.656;2023-03-20T13:22:58;3.40;;;1.48;;
41923;SDS011;27613;48.116;11.656;2023-03-20T13:28:28;1.42;;;1.00;;
41923;SDS011;27613;48.116;11.656;2023-03-20T13:33:42;1.70;;;1.00;;
41923;SDS011;27613;48.116;11.656;2023-03-20T13:36:24;0.85;;;0.77;;
41923;SDS011;27613;48.116;11.656;2023-03-20T13:39:24;1.05;;;0.75;;
41923;SDS011;27613;48.116;11.656;2023-03-20T13:41:54;1.23;;;0.85;;
41923;SDS011;27613;48.116;11.656;2023-03-20T13:44:21;0.85;;;0.60;;
41923;SDS011;27613;48.116;11.656;2023-03-20T13:46:50;1.65;;;0.88;;
41923;SDS011;27613;48.116;11.656;2023-03-20T13:49:19;0.70;;;0.63;;
41923;SDS011;27613;48.116;11.656;2023-03-20T13:52:24;1.55;;;0.65;;
41923;SDS011;27613;48.116;11.656;2023-03-20T14:00:38;2.03;;;0.73;;
41923;SDS011;27613;48.116;11.656;2023-03-20T14:03:26;1.17;;;0.63;;
41923;SDS011;27613;48.116;11.656;2023-03-20T14:05:57;0.95;;;0.77;;
41923;SDS011;27613;48.116;11.656;2023-03-20T14:13:46;0.60;;;0.60;;
41923;SDS011;27613;48.116;11.656;2023-03-20T14:16:15;0.75;;;0.60;;
41923;SDS011;27613;48.116;11.656;2023-03-20T14:18:43;0.88;;;0.63;;
41923;SDS011;27613;48.116;11.656;2023-03-20T14:21:13;1.00;;;0.60;;
41923;SDS011;27613;48.116;11.656;2023-03-20T14:23:43;1.60;;;1.00;;
41923;SDS011;27613;48.116;11.656;2023-03-20T14:26:20;1.40;;;0.70;;
41923;SDS011;27613;48.116;11.656;2023-03-20T14:29:00;1.02;;;0.65;;
41923;SDS011;27613;48.116;11.656;2023-03-20T14:31:49;3.05;;;0.88;;
41923;SDS011;27613;48.116;11.656;2023-03-20T14:34:20;1.52;;;0.80;;
41923;SDS011;27613;48.116;11.656;2023-03-20T14:39:29;1.02;;;0.93;;
41923;SDS011;27613;48.116;11.656;2023-03-20T14:50:33;1.00;;;0.90;;
41923;SDS011;27613;48.116;11.656;2023-03-20T14:53:24;1.95;;;1.20;;
41923;SDS011;27613;48.116;11.656;2023-03-20T15:04:31;1.98;;;1.00;;
41923;SDS011;27613;48.116;11.656;2023-03-20T15:06:31;7.50;;;1.33;;
41923;SDS011;27613;48.116;11.656;2023-03-20T15:11:25;1.15;;;1.00;;
41923;SDS011;27613;48.116;11.656;2023-03-20T15:13:51;1.25;;;0.90;;
41923;SDS011;27613;48.116;11.656;2023-03-20T15:16:24;2.70;;;1.15;;
41923;SDS011;27613;48.116;11.656;2023-03-20T15:18:52;3.45;;;1.40;;
41923;SDS011;27613;48.116;11.656;2023-03-20T15:21:19;1.13;;;1.00;;
41923;SDS011;27613;48.116;11.656;2023-03-20T15:23:54;1.40;;;0.98;;
41923;SDS011;27613;48.116;11.656;2023-03-20T15:26:20;2.28;;;1.40;;
41923;SDS011;27613;48.116;11.656;2023-03-20T15:28:49;1.67;;;1.10;;
41923;SDS011;27613;48.116;11.656;2023-03-20T15:31:20;2.05;;;1.20;;
41923;SDS011;27613;48.116;11.656;2023-03-20T15:33:49;1.30;;;1.00;;
41923;SDS011;27613;48.116;11.656;2023-03-20T15:36:18;1.50;;;1.25;;
41923;SDS011;27613;48.116;11.656;2023-03-20T15:38:47;4.40;;;1.35;;
41923;SDS011;27613;48.116;11.656;2023-03-20T15:41:23;2.22;;;1.25;;
41923;SDS011;27613;48.116;11.656;2023-03-20T15:43:51;1.10;;;1.00;;
41923;SDS011;27613;48.116;11.656;2023-03-20T15:46:16;1.55;;;0.85;;
41923;SDS011;27613;48.116;11.656;2023-03-20T15:48:49;1.92;;;1.33;;
41923;SDS011;27613;48.116;11.656;2023-03-20T15:51:14;3.67;;;1.65;;
41923;SDS011;27613;48.116;11.656;2023-03-20T15:53:42;2.13;;;1.52;;
41923;SDS011;27613;48.116;11.656;2023-03-20T15:56:12;7.32;;;3.40;;
41923;SDS011;27613;48.116;11.656;2023-03-20T15:58:40;2.83;;;1.80;;
41923;SDS011;27613;48.116;11.656;2023-03-20T16:01:07;2.42;;;1.30;;
41923;SDS011;27613;48.116;11.656;2023-03-20T16:03:34;2.22;;;1.30;;
41923;SDS011;27613;48.116;11.656;2023-03-20T16:06:02;2.15;;;1.05;;
41923;SDS011;27613;48.116;11.656;2023-03-20T16:08:32;1.85;;;1.20;;
41923;SDS011;27613;48.116;11.656;2023-03-20T16:11:02;1.88;;;1.27;;
41923;SDS011;27613;48.116;11.656;2023-03-20T16:13:38;3.47;;;1.30;;
41923;SDS011;27613;48.116;11.656;2023-03-20T16:16:06;1.77;;;1.05;;
41923;SDS011;27613;48.116;11.656;2023-03-20T16:18:36;2.50;;;1.13;;
41923;SDS011;27613;48.116;11.656;2023-03-20T16:21:25;1.17;;;1.05;;
41923;SDS011;27613;48.116;11.656;2023-03-20T16:23:52;1.70;;;1.20;;
41923;SDS011;27613;48.116;11.656;2023-03-20T16:26:21;2.15;;;1.20;;
41923;SDS011;27613;48.116;11.656;2023-03-20T16:28:52;2.47;;;1.38;;
41923;SDS011;27613;48.116;11.656;2023-03-20T16:31:27;2.08;;;1.40;;
41923;SDS011;27613;48.116;11.656;2023-03-20T16:34:00;2.15;;;1.13;;
41923;SDS011;27613;48.116;11.656;2023-03-20T16:36:32;1.23;;;1.10;;
41923;SDS011;27613;48.116;11.656;2023-03-20T16:41:43;1.67;;;1.13;;
41923;SDS011;27613;48.116;11.656;2023-03-20T16:44:16;1.40;;;0.93;;
41923;SDS011;27613;48.116;11.656;2023-03-20T16:52:15;1.70;;;1.10;;
41923;SDS011;27613;48.116;11.656;2023-03-20T16:54:44;3.40;;;1.25;;
41923;SDS011;27613;48.116;11.656;2023-03-20T16:57:14;1.42;;;1.10;;
41923;SDS011;27613;48.116;11.656;2023-03-20T16:59:42;1.95;;;1.17;;
41923;SDS011;27613;48.116;11.656;2023-03-20T17:02:50;1.52;;;1.15;;
41923;SDS011;27613;48.116;11.656;2023-03-20T17:05:01;2.17;;;1.15;;
41923;SDS011;27613;48.116;11.656;2023-03-20T17:07:28;2.38;;;0.95;;
41923;SDS011;27613;48.116;11.656;2023-03-20T17:09:59;1.65;;;1.00;;
41923;SDS011;27613;48.116;11.656;2023-03-20T17:12:40;1.80;;;1.30;;
41923;SDS011;27613;48.116;11.656;2023-03-20T17:15:08;1.42;;;1.10;;
41923;SDS011;27613;48.116;11.656;2023-03-20T17:17:38;3.17;;;1.60;;